sensor_id;sensor_type;location;lat;lon;timestamp;temperature;humidity
12602;DHT22;30282;16.436;99.370;2023-06-19T00:00:11;26.50;99.90
12602;DHT22;30282;16.436;99.370;2023-06-19T00:02:42;26.50;99.90
12602;DHT22;30282;16.436;99.370;2023-06-19T00:05:13;26.50;99.90
12602;DHT22;30282;16.436;99.370;2023-06-19T00:07:42;26.60;99.90
12602;DHT22;30282;16.436;99.370;2023-06-19T00:10:14;26.50;99.90
12602;DHT22;30282;16.436;99.370;2023-06-19T00:12:45;26.50;99.90
12602;DHT22;30282;16.436;99.370;2023-06-19T00:15:15;26.50;99.90
12602;DHT22;30282;16.436;99.370;2023-06-19T00:17:44;26.60;99.90
12602;DHT22;30282;16.436;99.370;2023-06-19T00:20:13;26.60;99.90
12602;DHT22;30282;16.436;99.370;2023-06-19T00:22:42;26.60;99.90
12602;DHT22;30282;16.436;99.370;2023-06-19T00:25:11;26.60;99.90
12602;DHT22;30282;16.436;99.370;2023-06-19T00:27:40;26.60;99.90
12602;DHT22;30282;16.436;99.370;2023-06-19T00:30:12;26.60;99.90
12602;DHT22;30282;16.436;99.370;2023-06-19T00:32:41;26.60;99.90
12602;DHT22;30282;16.436;99.370;2023-06-19T00:35:16;26.60;99.90
12602;DHT22;30282;16.436;99.370;2023-06-19T00:37:46;26.70;99.90
12602;DHT22;30282;16.436;99.370;2023-06-19T00:40:26;26.70;99.90
12602;DHT22;30282;16.436;99.370;2023-06-19T00:42:55;26.80;99.90
12602;DHT22;30282;16.436;99.370;2023-06-19T00:45:27;26.80;99.90
12602;DHT22;30282;16.436;99.370;2023-06-19T00:47:56;26.90;99.90
12602;DHT22;30282;16.436;99.370;2023-06-19T00:50:27;26.90;99.90
12602;DHT22;30282;16.436;99.370;2023-06-19T00:52:56;26.90;99.90
12602;DHT22;30282;16.436;99.370;2023-06-19T00:55:28;27.00;99.90
12602;DHT22;30282;16.436;99.370;2023-06-19T00:57:57;27.00;99.90
12602;DHT22;30282;16.436;99.370;2023-06-19T01:00:29;26.90;99.90
12602;DHT22;30282;16.436;99.370;2023-06-19T01:02:58;26.90;99.90
12602;DHT22;30282;16.436;99.370;2023-06-19T01:05:27;26.90;99.90
12602;DHT22;30282;16.436;99.370;2023-06-19T01:08:00;26.90;99.90
12602;DHT22;30282;16.436;99.370;2023-06-19T01:10:36;26.90;99.90
12602;DHT22;30282;16.436;99.370;2023-06-19T01:13:10;26.90;99.90
12602;DHT22;30282;16.436;99.370;2023-06-19T01:15:42;26.80;99.90
12602;DHT22;30282;16.436;99.370;2023-06-19T01:18:13;26.80;99.90
12602;DHT22;30282;16.436;99.370;2023-06-19T01:20:43;26.90;99.90
12602;DHT22;30282;16.436;99.370;2023-06-19T01:23:14;26.90;99.90
12602;DHT22;30282;16.436;99.370;2023-06-19T01:25:43;26.90;99.90
12602;DHT22;30282;16.436;99.370;2023-06-19T01:28:13;26.90;99.90
12602;DHT22;30282;16.436;99.370;2023-06-19T01:30:43;26.90;99.90
12602;DHT22;30282;16.436;99.370;2023-06-19T01:33:17;26.90;99.90
12602;DHT22;30282;16.436;99.370;2023-06-19T01:35:49;26.90;99.90
12602;DHT22;30282;16.436;99.370;2023-06-19T01:38:22;27.00;99.90
12602;DHT22;30282;16.436;99.370;2023-06-19T01:40:54;27.00;99.90
12602;DHT22;30282;16.436;99.370;2023-06-19T01:43:26;27.00;99.90
12602;DHT22;30282;16.436;99.370;2023-06-19T01:45:56;27.10;99.90
12602;DHT22;30282;16.436;99.370;2023-06-19T01:48:25;27.20;99.90
12602;DHT22;30282;16.436;99.370;2023-06-19T01:50:54;27.20;99.90
12602;DHT22;30282;16.436;99.370;2023-06-19T01:53:25;27.30;99.90
12602;DHT22;30282;16.436;99.370;2023-06-19T01:55:56;27.20;99.90
12602;DHT22;30282;16.436;99.370;2023-06-19T01:58:25;27.20;99.90
12602;DHT22;30282;16.436;99.370;2023-06-19T02:00:55;27.20;99.90
12602;DHT22;30282;16.436;99.370;2023-06-19T02:03:24;27.30;99.90
12602;DHT22;30282;16.436;99.370;2023-06-19T02:05:53;27.40;99.90
12602;DHT22;30282;16.436;99.370;2023-06-19T02:08:24;27.40;99.90
12602;DHT22;30282;16.436;99.370;2023-06-19T02:10:53;27.50;99.90
12602;DHT22;30282;16.436;99.370;2023-06-19T02:13:22;27.60;99.90
12602;DHT22;30282;16.436;99.370;2023-06-19T02:15:52;27.60;99.90
12602;DHT22;30282;16.436;99.370;2023-06-19T02:18:21;27.70;99.90
12602;DHT22;30282;16.436;99.370;2023-06-19T02:20:50;27.80;99.90
12602;DHT22;30282;16.436;99.370;2023-06-19T02:23:19;27.80;99.90
12602;DHT22;30282;16.436;99.370;2023-06-19T02:25:50;27.90;99.90
12602;DHT22;30282;16.436;99.370;2023-06-19T02:28:19;27.90;99.90
12602;DHT22;30282;16.436;99.370;2023-06-19T02:30:49;27.90;99.90
12602;DHT22;30282;16.436;99.370;2023-06-19T02:33:18;27.90;99.90
12602;DHT22;30282;16.436;99.370;2023-06-19T02:35:47;28.00;99.90
12602;DHT22;30282;16.436;99.370;2023-06-19T02:38:16;28.10;99.90
12602;DHT22;30282;16.436;99.370;2023-06-19T02:40:50;28.10;99.90
12602;DHT22;30282;16.436;99.370;2023-06-19T02:43:19;28.10;99.90
12602;DHT22;30282;16.436;99.370;2023-06-19T02:45:48;28.20;99.90
12602;DHT22;30282;16.436;99.370;2023-06-19T02:48:17;28.20;99.90
12602;DHT22;30282;16.436;99.370;2023-06-19T02:50:47;28.20;99.90
12602;DHT22;30282;16.436;99.370;2023-06-19T02:53:16;28.30;99.90
12602;DHT22;30282;16.436;99.370;2023-06-19T02:55:45;28.30;99.90
12602;DHT22;30282;16.436;99.370;2023-06-19T02:58:16;28.40;99.90
12602;DHT22;30282;16.436;99.370;2023-06-19T03:00:45;28.40;99.90
12602;DHT22;30282;16.436;99.370;2023-06-19T03:03:15;28.50;99.90
12602;DHT22;30282;16.436;99.370;2023-06-19T03:05:44;28.50;99.90
12602;DHT22;30282;16.436;99.370;2023-06-19T03:08:13;28.50;99.90
12602;DHT22;30282;16.436;99.370;2023-06-19T03:10:42;28.50;99.90
12602;DHT22;30282;16.436;99.370;2023-06-19T03:13:12;28.60;99.90
12602;DHT22;30282;16.436;99.370;2023-06-19T03:15:43;28.60;99.90
12602;DHT22;30282;16.436;99.370;2023-06-19T03:18:12;28.60;99.90
12602;DHT22;30282;16.436;99.370;2023-06-19T03:20:42;28.60;99.90
12602;DHT22;30282;16.436;99.370;2023-06-19T03:23:11;28.60;99.90
12602;DHT22;30282;16.436;99.370;2023-06-19T03:25:40;28.60;99.90
12602;DHT22;30282;16.436;99.370;2023-06-19T03:28:09;28.60;99.90
12602;DHT22;30282;16.436;99.370;2023-06-19T03:30:39;28.70;99.90
12602;DHT22;30282;16.436;99.370;2023-06-19T03:33:10;28.70;99.90
12602;DHT22;30282;16.436;99.370;2023-06-19T03:35:39;28.80;99.90
12602;DHT22;30282;16.436;99.370;2023-06-19T03:38:08;28.90;99.90
12602;DHT22;30282;16.436;99.370;2023-06-19T03:40:37;29.00;99.90
12602;DHT22;30282;16.436;99.370;2023-06-19T03:43:06;29.10;99.90
12602;DHT22;30282;16.436;99.370;2023-06-19T03:45:39;29.10;99.90
12602;DHT22;30282;16.436;99.370;2023-06-19T03:48:10;29.20;99.90
12602;DHT22;30282;16.436;99.370;2023-06-19T03:50:39;29.20;99.90
12602;DHT22;30282;16.436;99.370;2023-06-19T03:53:09;29.20;99.90
12602;DHT22;30282;16.436;99.370;2023-06-19T03:55:38;29.20;99.90
12602;DHT22;30282;16.436;99.370;2023-06-19T03:58:07;29.20;99.90
12602;DHT22;30282;16.436;99.370;2023-06-19T04:00:36;29.30;99.90
12602;DHT22;30282;16.436;99.370;2023-06-19T04:03:06;29.40;99.90
12602;DHT22;30282;16.436;99.370;2023-06-19T04:05:37;29.40;99.90
12602;DHT22;30282;16.436;99.370;2023-06-19T04:08:09;29.40;99.90
12602;DHT22;30282;16.436;99.370;2023-06-19T04:10:38;29.50;99.90
12602;DHT22;30282;16.436;99.370;2023-06-19T04:13:07;29.60;99.90
12602;DHT22;30282;16.436;99.370;2023-06-19T04:15:36;29.60;99.90
12602;DHT22;30282;16.436;99.370;2023-06-19T04:18:06;29.70;99.90
12602;DHT22;30282;16.436;99.370;2023-06-19T04:20:36;29.70;99.90
12602;DHT22;30282;16.436;99.370;2023-06-19T04:23:05;29.90;99.90
12602;DHT22;30282;16.436;99.370;2023-06-19T04:25:35;29.80;99.90
12602;DHT22;30282;16.436;99.370;2023-06-19T04:28:04;29.70;99.90
12602;DHT22;30282;16.436;99.370;2023-06-19T04:30:33;29.70;99.90
12602;DHT22;30282;16.436;99.370;2023-06-19T04:33:06;29.70;99.90
12602;DHT22;30282;16.436;99.370;2023-06-19T04:35:37;29.80;99.90
12602;DHT22;30282;16.436;99.370;2023-06-19T04:38:07;30.00;99.90
12602;DHT22;30282;16.436;99.370;2023-06-19T04:40:36;30.10;99.90
12602;DHT22;30282;16.436;99.370;2023-06-19T04:43:06;30.20;99.90
12602;DHT22;30282;16.436;99.370;2023-06-19T04:45:35;30.30;99.90
12602;DHT22;30282;16.436;99.370;2023-06-19T04:48:05;30.40;99.90
12602;DHT22;30282;16.436;99.370;2023-06-19T04:50:37;30.40;99.90
12602;DHT22;30282;16.436;99.370;2023-06-19T04:53:08;30.50;99.90
12602;DHT22;30282;16.436;99.370;2023-06-19T04:55:37;30.50;99.90
12602;DHT22;30282;16.436;99.370;2023-06-19T04:58:06;30.60;99.90
12602;DHT22;30282;16.436;99.370;2023-06-19T05:00:36;30.60;99.90
12602;DHT22;30282;16.436;99.370;2023-06-19T05:03:05;30.70;99.90
12602;DHT22;30282;16.436;99.370;2023-06-19T05:05:35;30.80;99.90
12602;DHT22;30282;16.436;99.370;2023-06-19T05:08:06;30.90;99.90
12602;DHT22;30282;16.436;99.370;2023-06-19T05:10:35;30.90;99.90
12602;DHT22;30282;16.436;99.370;2023-06-19T05:13:05;31.00;99.90
12602;DHT22;30282;16.436;99.370;2023-06-19T05:15:34;31.10;99.90
12602;DHT22;30282;16.436;99.370;2023-06-19T05:18:04;31.20;99.90
12602;DHT22;30282;16.436;99.370;2023-06-19T05:20:33;31.30;99.90
12602;DHT22;30282;16.436;99.370;2023-06-19T05:23:02;31.30;99.90
12602;DHT22;30282;16.436;99.370;2023-06-19T05:25:33;31.40;99.90
12602;DHT22;30282;16.436;99.370;2023-06-19T05:28:03;31.50;99.90
12602;DHT22;30282;16.436;99.370;2023-06-19T05:30:32;31.60;99.90
12602;DHT22;30282;16.436;99.370;2023-06-19T05:33:02;31.60;99.90
12602;DHT22;30282;16.436;99.370;2023-06-19T05:35:31;31.60;99.90
12602;DHT22;30282;16.436;99.370;2023-06-19T05:38:01;31.60;99.90
12602;DHT22;30282;16.436;99.370;2023-06-19T05:40:30;31.80;99.90
12602;DHT22;30282;16.436;99.370;2023-06-19T05:43:01;31.80;99.90
12602;DHT22;30282;16.436;99.370;2023-06-19T05:45:30;31.80;99.90
12602;DHT22;30282;16.436;99.370;2023-06-19T05:47:59;31.80;99.90
12602;DHT22;30282;16.436;99.370;2023-06-19T05:50:28;31.80;99.90
12602;DHT22;30282;16.436;99.370;2023-06-19T05:52:58;31.80;99.90
12602;DHT22;30282;16.436;99.370;2023-06-19T05:55:27;31.80;99.90
12602;DHT22;30282;16.436;99.370;2023-06-19T05:57:56;31.90;99.90
12602;DHT22;30282;16.436;99.370;2023-06-19T06:00:27;31.90;99.90
12602;DHT22;30282;16.436;99.370;2023-06-19T06:02:57;32.00;99.90
12602;DHT22;30282;16.436;99.370;2023-06-19T06:05:28;32.00;99.90
12602;DHT22;30282;16.436;99.370;2023-06-19T06:07:57;32.00;99.90
12602;DHT22;30282;16.436;99.370;2023-06-19T06:10:26;32.10;99.90
12602;DHT22;30282;16.436;99.370;2023-06-19T06:12:56;32.10;99.90
12602;DHT22;30282;16.436;99.370;2023-06-19T06:15:26;32.20;99.90
12602;DHT22;30282;16.436;99.370;2023-06-19T06:17:56;32.30;99.90
12602;DHT22;30282;16.436;99.370;2023-06-19T06:20:26;32.20;99.90
12602;DHT22;30282;16.436;99.370;2023-06-19T06:22:55;32.20;99.90
12602;DHT22;30282;16.436;99.370;2023-06-19T06:25:25;32.20;99.90
12602;DHT22;30282;16.436;99.370;2023-06-19T06:27:54;32.20;99.90
12602;DHT22;30282;16.436;99.370;2023-06-19T06:30:24;32.20;99.90
12602;DHT22;30282;16.436;99.370;2023-06-19T06:32:56;32.20;99.90
12602;DHT22;30282;16.436;99.370;2023-06-19T06:35:25;32.20;99.90
12602;DHT22;30282;16.436;99.370;2023-06-19T06:37:54;32.30;99.90
12602;DHT22;30282;16.436;99.370;2023-06-19T06:40:24;32.30;99.90
12602;DHT22;30282;16.436;99.370;2023-06-19T06:42:54;32.30;99.90
12602;DHT22;30282;16.436;99.370;2023-06-19T06:45:23;32.30;99.90
12602;DHT22;30282;16.436;99.370;2023-06-19T06:47:57;32.40;99.90
12602;DHT22;30282;16.436;99.370;2023-06-19T06:50:27;32.30;99.90
12602;DHT22;30282;16.436;99.370;2023-06-19T06:52:59;32.30;99.90
12602;DHT22;30282;16.436;99.370;2023-06-19T06:55:28;32.30;99.90
12602;DHT22;30282;16.436;99.370;2023-06-19T06:57:57;32.30;99.90
12602;DHT22;30282;16.436;99.370;2023-06-19T07:00:26;32.40;99.90
12602;DHT22;30282;16.436;99.370;2023-06-19T07:02:57;32.50;99.90
12602;DHT22;30282;16.436;99.370;2023-06-19T07:05:27;32.60;99.90
12602;DHT22;30282;16.436;99.370;2023-06-19T07:07:56;32.70;99.90
12602;DHT22;30282;16.436;99.370;2023-06-19T07:10:26;32.80;99.90
12602;DHT22;30282;16.436;99.370;2023-06-19T07:12:55;32.80;99.90
12602;DHT22;30282;16.436;99.370;2023-06-19T07:15:24;32.80;99.90
12602;DHT22;30282;16.436;99.370;2023-06-19T07:17:53;32.90;99.90
12602;DHT22;30282;16.436;99.370;2023-06-19T07:20:25;33.00;99.90
12602;DHT22;30282;16.436;99.370;2023-06-19T07:22:55;33.20;99.90
12602;DHT22;30282;16.436;99.370;2023-06-19T07:25:24;33.30;99.90
12602;DHT22;30282;16.436;99.370;2023-06-19T07:27:53;33.30;99.90
12602;DHT22;30282;16.436;99.370;2023-06-19T07:30:23;33.30;99.90
12602;DHT22;30282;16.436;99.370;2023-06-19T07:32:52;33.30;99.90
12602;DHT22;30282;16.436;99.370;2023-06-19T07:35:23;33.50;99.90
12602;DHT22;30282;16.436;99.370;2023-06-19T07:37:53;33.50;99.90
12602;DHT22;30282;16.436;99.370;2023-06-19T07:40:22;33.60;99.90
12602;DHT22;30282;16.436;99.370;2023-06-19T07:42:51;33.60;99.90
12602;DHT22;30282;16.436;99.370;2023-06-19T07:45:20;33.60;99.90
12602;DHT22;30282;16.436;99.370;2023-06-19T07:47:54;33.50;99.90
12602;DHT22;30282;16.436;99.370;2023-06-19T07:50:25;33.40;99.90
12602;DHT22;30282;16.436;99.370;2023-06-19T07:52:55;33.30;99.90
12602;DHT22;30282;16.436;99.370;2023-06-19T07:55:24;33.30;99.90
12602;DHT22;30282;16.436;99.370;2023-06-19T07:57:53;33.30;99.90
12602;DHT22;30282;16.436;99.370;2023-06-19T08:00:24;33.20;99.90
12602;DHT22;30282;16.436;99.370;2023-06-19T08:02:53;33.20;99.90
12602;DHT22;30282;16.436;99.370;2023-06-19T08:05:24;33.10;99.90
12602;DHT22;30282;16.436;99.370;2023-06-19T08:07:55;33.00;99.90
12602;DHT22;30282;16.436;99.370;2023-06-19T08:10:25;33.00;99.90
12602;DHT22;30282;16.436;99.370;2023-06-19T08:12:54;33.10;99.90
12602;DHT22;30282;16.436;99.370;2023-06-19T08:15:24;33.00;99.90
12602;DHT22;30282;16.436;99.370;2023-06-19T08:17:53;32.90;99.90
12602;DHT22;30282;16.436;99.370;2023-06-19T08:20:25;32.90;99.90
12602;DHT22;30282;16.436;99.370;2023-06-19T08:22:54;32.80;99.90
12602;DHT22;30282;16.436;99.370;2023-06-19T08:25:24;32.80;99.90
12602;DHT22;30282;16.436;99.370;2023-06-19T08:27:54;32.60;99.90
12602;DHT22;30282;16.436;99.370;2023-06-19T08:30:23;32.60;99.90
12602;DHT22;30282;16.436;99.370;2023-06-19T08:32:53;32.60;99.90
12602;DHT22;30282;16.436;99.370;2023-06-19T08:35:24;32.50;99.90
12602;DHT22;30282;16.436;99.370;2023-06-19T08:37:53;32.40;99.90
12602;DHT22;30282;16.436;99.370;2023-06-19T08:40:23;32.30;99.90
12602;DHT22;30282;16.436;99.370;2023-06-19T08:42:53;32.30;99.90
12602;DHT22;30282;16.436;99.370;2023-06-19T08:45:23;32.40;99.90
12602;DHT22;30282;16.436;99.370;2023-06-19T08:47:58;32.50;99.90
12602;DHT22;30282;16.436;99.370;2023-06-19T08:50:31;32.30;99.90
12602;DHT22;30282;16.436;99.370;2023-06-19T08:53:01;32.10;99.90
12602;DHT22;30282;16.436;99.370;2023-06-19T08:55:30;31.90;99.90
12602;DHT22;30282;16.436;99.370;2023-06-19T08:57:59;31.60;99.90
12602;DHT22;30282;16.436;99.370;2023-06-19T09:00:29;31.50;99.90
12602;DHT22;30282;16.436;99.370;2023-06-19T09:03:00;31.30;99.90
12602;DHT22;30282;16.436;99.370;2023-06-19T09:05:32;31.10;99.90
12602;DHT22;30282;16.436;99.370;2023-06-19T09:08:01;31.00;99.90
12602;DHT22;30282;16.436;99.370;2023-06-19T09:10:30;30.90;99.90
12602;DHT22;30282;16.436;99.370;2023-06-19T09:13:01;30.80;99.90
12602;DHT22;30282;16.436;99.370;2023-06-19T09:15:35;30.70;99.90
12602;DHT22;30282;16.436;99.370;2023-06-19T09:18:10;30.70;99.90
12602;DHT22;30282;16.436;99.370;2023-06-19T09:20:42;30.70;99.90
12602;DHT22;30282;16.436;99.370;2023-06-19T09:23:12;30.70;99.90
12602;DHT22;30282;16.436;99.370;2023-06-19T09:25:49;30.60;99.90
12602;DHT22;30282;16.436;99.370;2023-06-19T09:28:23;30.60;99.90
12602;DHT22;30282;16.436;99.370;2023-06-19T09:30:56;30.60;99.90
12602;DHT22;30282;16.436;99.370;2023-06-19T09:33:27;30.60;99.90
12602;DHT22;30282;16.436;99.370;2023-06-19T09:36:00;30.50;99.90
12602;DHT22;30282;16.436;99.370;2023-06-19T09:38:32;30.50;99.90
12602;DHT22;30282;16.436;99.370;2023-06-19T09:41:03;30.30;99.90
12602;DHT22;30282;16.436;99.370;2023-06-19T09:43:37;30.30;99.90
12602;DHT22;30282;16.436;99.370;2023-06-19T09:46:07;30.40;99.90
12602;DHT22;30282;16.436;99.370;2023-06-19T09:48:42;30.40;99.90
12602;DHT22;30282;16.436;99.370;2023-06-19T09:51:16;30.50;99.90
12602;DHT22;30282;16.436;99.370;2023-06-19T09:53:46;30.50;99.90
12602;DHT22;30282;16.436;99.370;2023-06-19T09:56:16;30.50;99.90
12602;DHT22;30282;16.436;99.370;2023-06-19T09:58:50;30.60;99.90
12602;DHT22;30282;16.436;99.370;2023-06-19T10:01:20;30.60;99.90
12602;DHT22;30282;16.436;99.370;2023-06-19T10:03:49;30.60;99.90
12602;DHT22;30282;16.436;99.370;2023-06-19T10:06:23;30.60;99.90
12602;DHT22;30282;16.436;99.370;2023-06-19T10:08:52;30.60;99.90
12602;DHT22;30282;16.436;99.370;2023-06-19T10:11:22;30.60;99.90
12602;DHT22;30282;16.436;99.370;2023-06-19T10:13:54;30.60;99.90
12602;DHT22;30282;16.436;99.370;2023-06-19T10:16:37;30.70;99.90
12602;DHT22;30282;16.436;99.370;2023-06-19T10:19:13;30.70;99.90
12602;DHT22;30282;16.436;99.370;2023-06-19T10:21:49;30.70;99.90
12602;DHT22;30282;16.436;99.370;2023-06-19T10:24:19;30.60;99.90
12602;DHT22;30282;16.436;99.370;2023-06-19T10:26:59;30.50;99.90
12602;DHT22;30282;16.436;99.370;2023-06-19T10:29:41;30.30;99.90
12602;DHT22;30282;16.436;99.370;2023-06-19T10:32:10;30.30;99.90
12602;DHT22;30282;16.436;99.370;2023-06-19T10:34:40;30.30;99.90
12602;DHT22;30282;16.436;99.370;2023-06-19T10:37:16;30.30;99.90
12602;DHT22;30282;16.436;99.370;2023-06-19T10:39:45;30.20;99.90
12602;DHT22;30282;16.436;99.370;2023-06-19T10:42:15;30.20;99.90
12602;DHT22;30282;16.436;99.370;2023-06-19T10:44:45;30.20;99.90
12602;DHT22;30282;16.436;99.370;2023-06-19T10:47:15;30.20;99.90
12602;DHT22;30282;16.436;99.370;2023-06-19T10:49:45;30.30;99.90
12602;DHT22;30282;16.436;99.370;2023-06-19T10:52:19;30.30;99.90
12602;DHT22;30282;16.436;99.370;2023-06-19T10:54:54;30.30;99.90
12602;DHT22;30282;16.436;99.370;2023-06-19T10:57:28;30.40;99.90
12602;DHT22;30282;16.436;99.370;2023-06-19T10:59:58;30.50;99.90
12602;DHT22;30282;16.436;99.370;2023-06-19T11:02:27;30.50;99.90
12602;DHT22;30282;16.436;99.370;2023-06-19T11:05:03;30.50;99.90
12602;DHT22;30282;16.436;99.370;2023-06-19T11:07:35;30.50;99.90
12602;DHT22;30282;16.436;99.370;2023-06-19T11:10:05;30.50;99.90
12602;DHT22;30282;16.436;99.370;2023-06-19T11:12:37;30.50;99.90
12602;DHT22;30282;16.436;99.370;2023-06-19T11:15:08;30.50;99.90
12602;DHT22;30282;16.436;99.370;2023-06-19T11:17:37;30.50;99.90
12602;DHT22;30282;16.436;99.370;2023-06-19T11:20:11;30.50;99.90
12602;DHT22;30282;16.436;99.370;2023-06-19T11:22:45;30.60;99.90
12602;DHT22;30282;16.436;99.370;2023-06-19T11:25:17;30.60;99.90
12602;DHT22;30282;16.436;99.370;2023-06-19T11:27:49;30.60;99.90
12602;DHT22;30282;16.436;99.370;2023-06-19T11:30:31;30.60;99.90
12602;DHT22;30282;16.436;99.370;2023-06-19T11:33:00;30.60;99.90
12602;DHT22;30282;16.436;99.370;2023-06-19T11:35:33;30.50;99.90
12602;DHT22;30282;16.436;99.370;2023-06-19T11:38:08;30.60;99.90
12602;DHT22;30282;16.436;99.370;2023-06-19T11:40:43;30.50;99.90
12602;DHT22;30282;16.436;99.370;2023-06-19T11:43:12;30.40;99.90
12602;DHT22;30282;16.436;99.370;2023-06-19T11:45:52;30.30;99.90
12602;DHT22;30282;16.436;99.370;2023-06-19T11:48:27;30.30;99.90
12602;DHT22;30282;16.436;99.370;2023-06-19T11:51:02;30.30;99.90
12602;DHT22;30282;16.436;99.370;2023-06-19T11:53:52;30.30;99.90
12602;DHT22;30282;16.436;99.370;2023-06-19T11:56:28;30.30;99.90
12602;DHT22;30282;16.436;99.370;2023-06-19T11:58:59;30.30;99.90
12602;DHT22;30282;16.436;99.370;2023-06-19T12:01:29;30.30;99.90
12602;DHT22;30282;16.436;99.370;2023-06-19T12:03:58;30.30;99.90
12602;DHT22;30282;16.436;99.370;2023-06-19T12:06:27;30.20;99.90
12602;DHT22;30282;16.436;99.370;2023-06-19T12:08:59;30.20;99.90
12602;DHT22;30282;16.436;99.370;2023-06-19T12:11:29;30.20;99.90
12602;DHT22;30282;16.436;99.370;2023-06-19T12:13:58;30.20;99.90
12602;DHT22;30282;16.436;99.370;2023-06-19T12:16:28;30.20;99.90
12602;DHT22;30282;16.436;99.370;2023-06-19T12:18:57;30.20;99.90
12602;DHT22;30282;16.436;99.370;2023-06-19T12:21:26;30.10;99.90
12602;DHT22;30282;16.436;99.370;2023-06-19T12:23:58;30.10;99.90
12602;DHT22;30282;16.436;99.370;2023-06-19T12:26:27;30.00;99.90
12602;DHT22;30282;16.436;99.370;2023-06-19T12:28:56;29.80;99.90
12602;DHT22;30282;16.436;99.370;2023-06-19T12:31:25;29.80;99.90
12602;DHT22;30282;16.436;99.370;2023-06-19T12:33:55;29.70;99.90
12602;DHT22;30282;16.436;99.370;2023-06-19T12:36:24;29.70;99.90
12602;DHT22;30282;16.436;99.370;2023-06-19T12:38:54;29.60;99.90
12602;DHT22;30282;16.436;99.370;2023-06-19T12:41:25;29.70;99.90
12602;DHT22;30282;16.436;99.370;2023-06-19T12:43:54;29.70;99.90
12602;DHT22;30282;16.436;99.370;2023-06-19T12:46:24;29.70;99.90
12602;DHT22;30282;16.436;99.370;2023-06-19T12:48:53;29.70;99.90
12602;DHT22;30282;16.436;99.370;2023-06-19T12:51:22;29.70;99.90
12602;DHT22;30282;16.436;99.370;2023-06-19T12:53:51;29.80;99.90
12602;DHT22;30282;16.436;99.370;2023-06-19T12:56:21;29.80;99.90
12602;DHT22;30282;16.436;99.370;2023-06-19T12:58:52;29.80;99.90
12602;DHT22;30282;16.436;99.370;2023-06-19T13:01:21;29.80;99.90
12602;DHT22;30282;16.436;99.370;2023-06-19T13:03:50;29.80;99.90
12602;DHT22;30282;16.436;99.370;2023-06-19T13:06:19;29.80;99.90
12602;DHT22;30282;16.436;99.370;2023-06-19T13:08:48;29.80;99.90
12602;DHT22;30282;16.436;99.370;2023-06-19T13:11:18;29.80;99.90
12602;DHT22;30282;16.436;99.370;2023-06-19T13:13:47;29.80;99.90
12602;DHT22;30282;16.436;99.370;2023-06-19T13:16:18;29.80;99.90
12602;DHT22;30282;16.436;99.370;2023-06-19T13:18:47;29.80;99.90
12602;DHT22;30282;16.436;99.370;2023-06-19T13:21:17;29.70;99.90
12602;DHT22;30282;16.436;99.370;2023-06-19T13:23:46;29.70;99.90
12602;DHT22;30282;16.436;99.370;2023-06-19T13:26:16;29.60;99.90
12602;DHT22;30282;16.436;99.370;2023-06-19T13:28:45;29.50;99.90
12602;DHT22;30282;16.436;99.370;2023-06-19T13:31:14;29.40;99.90
12602;DHT22;30282;16.436;99.370;2023-06-19T13:33:45;29.50;99.90
12602;DHT22;30282;16.436;99.370;2023-06-19T13:36:15;29.50;99.90
12602;DHT22;30282;16.436;99.370;2023-06-19T13:38:45;29.50;99.90
12602;DHT22;30282;16.436;99.370;2023-06-19T13:41:15;29.50;99.90
12602;DHT22;30282;16.436;99.370;2023-06-19T13:43:44;29.50;99.90
12602;DHT22;30282;16.436;99.370;2023-06-19T13:46:14;29.50;99.90
12602;DHT22;30282;16.436;99.370;2023-06-19T13:48:45;29.40;99.90
12602;DHT22;30282;16.436;99.370;2023-06-19T13:51:17;29.20;99.90
12602;DHT22;30282;16.436;99.370;2023-06-19T13:53:46;29.00;99.90
12602;DHT22;30282;16.436;99.370;2023-06-19T13:56:16;28.90;99.90
12602;DHT22;30282;16.436;99.370;2023-06-19T13:58:45;28.90;99.90
12602;DHT22;30282;16.436;99.370;2023-06-19T14:01:15;28.90;99.90
12602;DHT22;30282;16.436;99.370;2023-06-19T14:03:46;28.90;99.90
12602;DHT22;30282;16.436;99.370;2023-06-19T14:06:18;28.90;99.90
12602;DHT22;30282;16.436;99.370;2023-06-19T14:08:55;28.90;99.90
12602;DHT22;30282;16.436;99.370;2023-06-19T14:11:24;29.00;99.90
12602;DHT22;30282;16.436;99.370;2023-06-19T14:13:54;29.00;99.90
12602;DHT22;30282;16.436;99.370;2023-06-19T14:16:23;29.00;99.90
12602;DHT22;30282;16.436;99.370;2023-06-19T14:18:54;29.10;99.90
12602;DHT22;30282;16.436;99.370;2023-06-19T14:21:23;29.10;99.90
12602;DHT22;30282;16.436;99.370;2023-06-19T14:23:53;29.10;99.90
12602;DHT22;30282;16.436;99.370;2023-06-19T14:26:22;29.10;99.90
12602;DHT22;30282;16.436;99.370;2023-06-19T14:28:51;29.00;99.90
12602;DHT22;30282;16.436;99.370;2023-06-19T14:31:27;29.00;99.90
12602;DHT22;30282;16.436;99.370;2023-06-19T14:33:58;28.90;99.90
12602;DHT22;30282;16.436;99.370;2023-06-19T14:36:30;28.90;99.90
12602;DHT22;30282;16.436;99.370;2023-06-19T14:38:59;28.90;99.90
12602;DHT22;30282;16.436;99.370;2023-06-19T14:41:29;28.90;99.90
12602;DHT22;30282;16.436;99.370;2023-06-19T14:44:00;28.90;99.90
12602;DHT22;30282;16.436;99.370;2023-06-19T14:46:32;28.80;99.90
12602;DHT22;30282;16.436;99.370;2023-06-19T14:49:11;28.80;99.90
12602;DHT22;30282;16.436;99.370;2023-06-19T14:51:42;28.70;99.90
12602;DHT22;30282;16.436;99.370;2023-06-19T14:54:14;28.70;99.90
12602;DHT22;30282;16.436;99.370;2023-06-19T14:56:44;28.70;99.90
12602;DHT22;30282;16.436;99.370;2023-06-19T14:59:15;28.70;99.90
12602;DHT22;30282;16.436;99.370;2023-06-19T15:01:45;28.80;99.90
12602;DHT22;30282;16.436;99.370;2023-06-19T15:04:16;28.80;99.90
12602;DHT22;30282;16.436;99.370;2023-06-19T15:06:45;28.80;99.90
12602;DHT22;30282;16.436;99.370;2023-06-19T15:09:15;28.80;99.90
12602;DHT22;30282;16.436;99.370;2023-06-19T15:11:44;28.70;99.90
12602;DHT22;30282;16.436;99.370;2023-06-19T15:14:13;28.70;99.90
12602;DHT22;30282;16.436;99.370;2023-06-19T15:16:44;28.70;99.90
12602;DHT22;30282;16.436;99.370;2023-06-19T15:19:13;28.60;99.90
12602;DHT22;30282;16.436;99.370;2023-06-19T15:21:44;28.60;99.90
12602;DHT22;30282;16.436;99.370;2023-06-19T15:24:16;28.60;99.90
12602;DHT22;30282;16.436;99.370;2023-06-19T15:26:48;28.60;99.90
12602;DHT22;30282;16.436;99.370;2023-06-19T15:29:18;28.60;99.90
12602;DHT22;30282;16.436;99.370;2023-06-19T15:31:50;28.50;99.90
12602;DHT22;30282;16.436;99.370;2023-06-19T15:34:21;28.50;99.90